Disclaimer

Please do not use the information listed here in-flight or in-navigation, as they are not provided to us by the airports but are provided by volunteers, so they might be outdated.

Search


Regions


Airport information page

Radio informations:
Tower (TWR) - 118.2 MHz
TCA - 120.0 MHz
Ground (GND) - 121.7 MHz
DEP - 119.4 MHz
Clearance delivery - 121.8 MHz
Automatic Terminal Information Service (ATIS) - 127.05 MHz
Approach (APP) - 126.0 MHz

Airport informations:
Latitude: 31° 48' 12.23" N
Longitude: 130° 43' 09.87" E
Elevation: 906 feet - 276 meters
Operating hours: Remarks
Operating agency: Civil government, landing fees and diplomatic clearance may be required
Timezone: UTC+9
Fuel: Jet A, without icing inhibitor.

100/130 octane gasoline, leaded, MIL-L-5572F (GREEN)

Runway information:
16/34 - 9840 x 150 feet< - >2999 x 46 meters

Recent METARs:
RJFK 190300Z 35004KT 310V070 9999 BCFG FEW003 BKN010 BKN090 14/13 Q1016 RMK 2ST003 5ST010 6AC090 A3001 3000E-S FG E-S
RJFK 190400Z 33006KT 280V010 9999 FEW005 SCT015 BKN090 14/09 Q1015 RMK 1ST005 3CU015 7AC090 A3000
RJFK 190400Z 33006KT 280V010 9999 FEW005 SCT015 BKN090 14/09 Q1015 RMK 1ST005 3CU015 7AC090 A3000

Airport on the map: